Etusivu
METAR-TAF:

METAR-TAF

Lentoasemat :

Tšita, Venäjä

Leveyspiiri: 52-05N, Pituuspiiri: 113-29E, korkeus merenpinnasta: 685 m

Tämänhetkinen sää

Tämä raportti tehtiin 32 minuuttia sitten, kello 03.30 UTC
Tuuli 2 kn idästä/kaakosta
Lämpötila -14°C
Kosteus 55%
Ilmanpaine 1019 hPa
Näkyvyys 10 km tai enemmän

METAR: UIAA 210330Z 11001MPS 9999 NSC M14/M21 Q1019 R29/490145 NOSIG RMK QFE706/0941

Aika: 13:02 (04:02 UTC)

Sääennuste

Tämä raportti tehtiin 2 tuntia ja 2 minuuttia sitten, kello 02.00 UTC
Ennuste voimassa 21. päivästä klo 03 UTC - 22. päivään klo 03 UTC
Tuuli 10 kn lännestä/luoteesta puuskistuen 19 kn:hen
Näkyvyys 10 km tai enemmän
Hajonneita pilviä 3000 ft:n korkeudessa, Cumulonimbus.
Ajoittain
21. päivästä klo 12 UTC - 22. päivään klo 03 UTC
Tuuli 6 kn etelästä/lounaasta

TAF: UIAA 210200Z 2103/2203 30005G10MPS 9999 BKN030CB TEMPO 2112/2203 20003MPS

Säähavainnot ja -ennusteet yli 4000 lentoasemalta (METAR- ja TAF-raportit).

Käytössä olevat sääasemat on merkitty karttaan keltaisilla ja punaisilla pisteillä.

Aseta hiiri pisteen päälle nähdäksesi sääaseman nimen.

Klikkaa sitten nähdäksesi säähavainnot ja -ennusteet.

Kartan vaihtaminen: klikkaa mustalla rastilla varustettuja vihreitä pisteitä, niin voit zoomata sisään; viivalla varustettua vihreää pistettä, niin voit zoomata ulos tai vihreitä nuolia, niin pääset viereisille kartoille.


METAR-TAF: